Time;durP1;ratioP1;P1;durP2;ratioP2;P2;SDS_P1;SDS_P2;PMS_P1;PMS_P2;Temp;Humidity;BMP_temperature;BMP_pressure;BME280_temperature;BME280_humidity;BME280_pressure;Samples;Min_cycle;Max_cycle;Signal;HPM_P1;HPM_P2
2022/12/15 00:40:20;;;;;;;;;;;;;;;-2.06;100.00;95219.25;5094012;28;20326;-73
2022/12/15 00:42:46;;;;;;;;;;;;;;;-2.04;100.00;95219.88;5093922;28;20053;-74
2022/12/15 00:45:11;;;;;;;;;;;;;;;-2.02;100.00;95212.81;5093851;28;19957;-73
2022/12/15 00:47:37;;;;;;;;;;;;;;;-2.02;100.00;95212.81;5093675;28;19941;-72
2022/12/15 01:20:20;;;;;;;;;;;;;;;-1.99;100.00;95235.59;5088789;28;19957;-73
2022/12/15 01:22:51;;;;;;;;;;;;;;;-1.98;100.00;95231.25;5093634;28;20057;-73
2022/12/15 01:25:18;;;;;;;;;;;;;;;-2.00;100.00;95235.75;5093986;28;20329;-73
2022/12/15 01:27:44;;;;;;;;;;;;;;;-2.02;100.00;95238.47;5096243;28;20317;-73
2022/12/15 01:30:13;;;;;;;;;;;;;;;-2.01;100.00;95240.09;5096309;28;19967;-73
2022/12/15 01:32:39;;;;;;;;;;;;;;;-2.00;100.00;95246.03;5097523;28;20335;-73
2022/12/15 01:35:05;;;;;;;;;;;;;;;-2.01;100.00;95237.53;5097359;28;19948;-73
2022/12/15 01:37:31;;;;;;;;;;;;;;;-2.02;100.00;95235.91;5097238;28;19978;-73
2022/12/15 01:42:42;;;;;;;;;;;;;;;-2.02;100.00;95238.47;5088499;28;20437;-73
2022/12/15 01:45:32;;;;;;;;;;;;;;;-2.01;100.00;95240.09;5095765;28;19963;-73
2022/12/15 01:48:01;;;;;;;;;;;;;;;-2.01;100.00;95239.31;5097183;28;19957;-73
2022/12/15 01:50:28;;;;;;;;;;;;;;;-2.01;100.00;95234.97;5097212;28;19959;-73
2022/12/15 01:52:54;;;;;;;;;;;;;;;-2.00;100.00;95239.13;5097144;28;19949;-73
2022/12/15 01:55:21;;;;;;;;;;;;;;;-2.01;100.00;95245.25;5096977;28;20035;-73
2022/12/15 01:57:48;;;;;;;;;;;;;;;-2.01;100.00;95244.44;5097558;28;19950;-73
2022/12/15 02:00:14;;;;;;;;;;;;;;;-2.03;100.00;95247.19;5097226;28;20410;-73
2022/12/15 02:02:40;;;;;;;;;;;;;;;-2.00;100.00;95251.16;5096787;28;20050;-73
2022/12/15 02:05:06;;;;;;;;;;;;;;;-2.00;100.00;95262.22;5097353;28;20390;-73
2022/12/15 02:07:32;;;;;;;;;;;;;;;-2.01;100.00;95260.66;5096779;28;19961;-73
2022/12/15 02:09:59;;;;;;;;;;;;;;;-2.00;100.00;95264.00;5095640;28;20410;-73
2022/12/15 02:12:28;;;;;;;;;;;;;;;-2.00;100.00;95267.38;5096509;28;19961;-73
2022/12/15 02:15:04;;;;;;;;;;;;;;;-1.99;100.00;95266.41;5095350;28;19953;-73
2022/12/15 02:17:48;;;;;;;;;;;;;;;-1.98;100.00;95262.06;5095660;28;19958;-73
2022/12/15 02:20:33;;;;;;;;;;;;;;;-1.97;100.00;95263.69;5078828;28;19947;-73
2022/12/15 02:23:07;;;;;;;;;;;;;;;-1.99;100.00;95255.34;5096497;28;20326;-73
2022/12/15 02:25:40;;;;;;;;;;;;;;;-2.00;100.00;95257.09;5096669;28;20319;-73
2022/12/15 02:28:20;;;;;;;;;;;;;;;-2.01;100.00;95257.28;5096502;28;19958;-73
2022/12/15 02:33:58;;;;;;;;;;;;;;;-2.05;100.00;95264.53;5096226;28;19951;-73
2022/12/15 02:36:44;;;;;;;;;;;;;;;-2.05;100.00;95272.22;5096177;28;19957;-73
2022/12/15 02:39:11;;;;;;;;;;;;;;;-2.08;100.00;95263.09;5094707;28;19962;-73
2022/12/15 02:41:38;;;;;;;;;;;;;;;-2.09;100.00;95269.19;5096168;28;19945;-73
2022/12/15 02:44:16;;;;;;;;;;;;;;;-2.08;100.00;95263.09;5096475;28;19955;-73
2022/12/15 02:46:42;;;;;;;;;;;;;;;-2.06;100.00;95261.16;5081328;28;19944;-73
2022/12/15 02:49:11;;;;;;;;;;;;;;;-2.05;100.00;95259.38;5096088;28;20322;-73
2022/12/15 02:51:37;;;;;;;;;;;;;;;-2.04;100.00;95266.09;5095785;28;19956;-74
2022/12/15 02:54:02;;;;;;;;;;;;;;;-2.03;100.00;95272.88;5096264;28;20370;-73
2022/12/15 02:56:47;;;;;;;;;;;;;;;-2.06;100.00;95263.72;5095904;28;20002;-73
2022/12/15 02:59:24;;;;;;;;;;;;;;;-2.08;100.00;95263.09;5096243;28;19958;-73
2022/12/15 03:01:56;;;;;;;;;;;;;;;-2.09;100.00;95264.06;5096024;28;19947;-73
2022/12/15 03:04:24;;;;;;;;;;;;;;;-2.09;100.00;95282.03;5095386;28;19953;-73
2022/12/15 03:06:57;;;;;;;;;;;;;;;-2.09;100.00;95283.81;5095705;28;19961;-73
2022/12/15 03:09:23;;;;;;;;;;;;;;;-2.11;100.00;95291.66;5095519;28;19950;-73
2022/12/15 03:11:49;;;;;;;;;;;;;;;-2.13;100.00;95291.03;5095548;28;19966;-73
2022/12/15 03:14:15;;;;;;;;;;;;;;;-2.14;100.00;95291.19;5095492;28;19958;-73
2022/12/15 03:16:41;;;;;;;;;;;;;;;-2.13;100.00;95297.94;5095361;28;19956;-74
2022/12/15 03:19:06;;;;;;;;;;;;;;;-2.11;100.00;95299.38;5086865;28;20360;-73
2022/12/15 03:21:32;;;;;;;;;;;;;;;-2.09;100.00;95301.78;5095362;28;19957;-74
2022/12/15 03:23:58;;;;;;;;;;;;;;;-2.08;100.00;95309.34;5095416;28;19945;-73
2022/12/15 03:26:24;;;;;;;;;;;;;;;-2.09;100.00;95301.78;5095332;28;20011;-74
2022/12/15 03:28:50;;;;;;;;;;;;;;;-2.08;100.00;95305.94;5094100;28;19949;-73
2022/12/15 03:31:16;;;;;;;;;;;;;;;-2.08;100.00;95305.94;5095086;28;19967;-73
2022/12/15 03:33:41;;;;;;;;;;;;;;;-2.06;100.00;95309.16;5094988;28;20444;-73
2022/12/15 03:36:07;;;;;;;;;;;;;;;-2.04;100.00;95302.06;5095000;28;19957;-74
2022/12/15 03:38:33;;;;;;;;;;;;;;;-2.05;100.00;95306.41;5095414;28;20045;-73
2022/12/15 03:40:59;;;;;;;;;;;;;;;-2.03;100.00;95318.31;5095140;28;19958;-73
2022/12/15 03:43:25;;;;;;;;;;;;;;;-2.03;100.00;95313.16;5094914;28;20351;-73
2022/12/15 03:45:51;;;;;;;;;;;;;;;-2.04;100.00;95317.47;5094811;28;19948;-73
2022/12/15 03:48:17;;;;;;;;;;;;;;;-2.04;100.00;95317.47;5093446;28;19959;-73
2022/12/15 03:50:43;;;;;;;;;;;;;;;-2.05;100.00;95310.75;5094330;28;20403;-73
2022/12/15 03:53:09;;;;;;;;;;;;;;;-2.04;100.00;95307.22;5094180;28;19964;-73
2022/12/15 03:55:35;;;;;;;;;;;;;;;-2.03;100.00;95311.41;5093823;28;19963;-73
2022/12/15 03:58:01;;;;;;;;;;;;;;;-2.01;100.00;95313.81;5094894;28;19963;-73
2022/12/15 04:00:27;;;;;;;;;;;;;;;-1.99;100.00;95335.78;5094512;28;19956;-73
2022/12/15 04:02:53;;;;;;;;;;;;;;;-1.97;100.00;95328.72;5094831;28;19961;-73
2022/12/15 04:05:26;;;;;;;;;;;;;;;-1.98;100.00;95314.25;5094442;28;19994;-73
2022/12/15 04:07:53;;;;;;;;;;;;;;;-1.97;100.00;95325.34;5094529;28;19958;-73
2022/12/15 04:10:19;;;;;;;;;;;;;;;-1.99;100.00;95330.66;5094563;28;20329;-73
2022/12/15 04:12:45;;;;;;;;;;;;;;;-1.98;100.00;95321.97;5094339;28;19970;-73
2022/12/15 04:15:11;;;;;;;;;;;;;;;-1.98;100.00;95324.53;5094430;28;19956;-73
2022/12/15 04:17:37;;;;;;;;;;;;;;;-1.97;100.00;95317.63;5094404;28;19951;-73
2022/12/15 04:20:10;;;;;;;;;;;;;;;-1.97;100.00;95320.22;5094706;28;19971;-73
2022/12/15 04:22:43;;;;;;;;;;;;;;;-1.97;100.00;95320.22;5094174;28;20427;-73
2022/12/15 05:33:54;;;;;;;;;;;;;;;-2.06;100.00;95365.66;5093481;28;19946;-73
2022/12/15 05:36:21;;;;;;;;;;;;;;;-2.02;100.00;95363.56;5093159;28;19953;-73
2022/12/15 05:38:48;;;;;;;;;;;;;;;-1.99;100.00;95360.69;5093231;28;19960;-73
2022/12/15 05:41:14;;;;;;;;;;;;;;;-2.03;100.00;95367.13;5093414;28;19972;-73
2022/12/15 05:43:40;;;;;;;;;;;;;;;-2.10;100.00;95369.53;5093336;28;19946;-73
2022/12/15 05:46:06;;;;;;;;;;;;;;;-2.19;100.00;95367.94;5093108;28;20489;-73
2022/12/15 05:48:32;;;;;;;;;;;;;;;-2.22;100.00;95366.53;5093373;28;20001;-73
2022/12/15 05:51:01;;;;;;;;;;;;;;;-2.19;100.00;95373.88;5093121;28;19996;-73
2022/12/15 05:53:27;;;;;;;;;;;;;;;-2.14;100.00;95378.53;5093760;28;20437;-73
2022/12/15 05:55:59;;;;;;;;;;;;;;;-2.10;100.00;95372.09;5093210;28;19952;-74
2022/12/15 05:58:25;;;;;;;;;;;;;;;-2.07;100.00;95374.34;5081628;28;19953;-73
2022/12/15 06:00:51;;;;;;;;;;;;;;;-2.05;100.00;95375.78;5093021;28;20002;-73
2022/12/15 06:03:16;;;;;;;;;;;;;;;-2.02;100.00;95371.28;5093217;28;19955;-74
2022/12/15 06:05:42;;;;;;;;;;;;;;;-2.00;100.00;95369.34;5093072;28;19953;-73
2022/12/15 06:08:08;;;;;;;;;;;;;;;-1.99;100.00;95376.88;5093245;28;20536;-73
2022/12/15 06:10:34;;;;;;;;;;;;;;;-2.00;100.00;95377.84;5093192;28;20122;-73
2022/12/15 06:13:00;;;;;;;;;;;;;;;-2.00;100.00;95375.25;5094687;28;19974;-73
2022/12/15 06:15:27;;;;;;;;;;;;;;;-2.01;100.00;95363.41;5096691;28;19960;-73
2022/12/15 06:17:54;;;;;;;;;;;;;;;-2.03;100.00;95360.19;5096630;28;19952;-73
2022/12/15 06:20:20;;;;;;;;;;;;;;;-2.05;100.00;95364.69;5095185;28;19952;-73
2022/12/15 06:22:46;;;;;;;;;;;;;;;-2.08;100.00;95368.41;5096468;28;20331;-73
2022/12/15 06:25:12;;;;;;;;;;;;;;;-2.09;100.00;95376.28;5096565;28;19954;-73
2022/12/15 06:27:38;;;;;;;;;;;;;;;-2.11;100.00;95389.28;5078435;28;19959;-73
2022/12/15 06:30:04;;;;;;;;;;;;;;;-2.10;100.00;95384.94;5095834;28;19975;-73
2022/12/15 06:32:32;;;;;;;;;;;;;;;-2.08;100.00;95388.97;5095128;28;19967;-73
2022/12/15 06:34:58;;;;;;;;;;;;;;;-2.08;100.00;95383.00;5096202;28;19947;-73
2022/12/15 06:37:24;;;;;;;;;;;;;;;-2.09;100.00;95382.22;5096267;28;19999;-73
2022/12/15 06:39:50;;;;;;;;;;;;;;;-2.10;100.00;95379.78;5096373;28;20041;-73
2022/12/15 06:42:16;;;;;;;;;;;;;;;-2.11;100.00;95373.88;5096171;28;19995;-73
2022/12/15 06:44:42;;;;;;;;;;;;;;;-2.13;100.00;95370.66;5096383;28;19954;-72
2022/12/15 06:47:08;;;;;;;;;;;;;;;-2.16;100.00;95376.13;5095995;28;20405;-73
2022/12/15 06:49:34;;;;;;;;;;;;;;;-2.15;100.00;95376.94;5095917;28;20009;-73
2022/12/15 06:51:59;;;;;;;;;;;;;;;-2.17;100.00;95376.28;5096148;28;19964;-73
2022/12/15 06:54:25;;;;;;;;;;;;;;;-2.19;100.00;95376.44;5095823;28;20414;-73
2022/12/15 06:56:51;;;;;;;;;;;;;;;-2.22;100.00;95381.13;5096040;28;19991;-73
2022/12/15 06:59:17;;;;;;;;;;;;;;;-2.22;100.00;95373.44;5096044;28;19961;-73
2022/12/15 07:01:43;;;;;;;;;;;;;;;-2.24;100.00;95376.16;5095635;28;19952;-73
2022/12/15 07:04:10;;;;;;;;;;;;;;;-2.23;100.00;95387.22;5095668;28;19981;-73
2022/12/15 07:06:36;;;;;;;;;;;;;;;-2.23;100.00;95385.44;5095797;28;20017;-73
2022/12/15 07:09:03;;;;;;;;;;;;;;;-2.21;100.00;95390.44;5095151;28;19954;-74
2022/12/15 07:11:29;;;;;;;;;;;;;;;-2.20;100.00;95387.69;5095435;28;19950;-73
2022/12/15 07:13:55;;;;;;;;;;;;;;;-2.21;100.00;95385.28;5095485;28;20008;-73
2022/12/15 07:16:21;;;;;;;;;;;;;;;-2.23;100.00;95379.53;5095621;28;19964;-73
2022/12/15 07:18:47;;;;;;;;;;;;;;;-2.26;100.00;95396.06;5095736;28;19950;-73
2022/12/15 07:21:13;;;;;;;;;;;;;;;-2.26;100.00;95394.28;5095327;28;19952;-73
2022/12/15 07:23:39;;;;;;;;;;;;;;;-2.27;100.00;95384.16;5094960;28;20004;-73
2022/12/15 07:26:06;;;;;;;;;;;;;;;-2.28;100.00;95391.09;5095236;28;20325;-73
2022/12/15 07:28:33;;;;;;;;;;;;;;;-2.29;100.00;95386.94;5095218;28;19949;-73
2022/12/15 07:31:02;;;;;;;;;;;;;;;-2.30;100.00;95382.75;5095344;28;19953;-73
2022/12/15 07:33:30;;;;;;;;;;;;;;;-2.27;100.00;95390.13;5093994;28;19967;-73
2022/12/15 07:35:56;;;;;;;;;;;;;;;-2.25;100.00;95403.59;5095148;28;19949;-73
2022/12/15 07:38:22;;;;;;;;;;;;;;;-2.21;100.00;95404.06;5095028;28;20029;-73
2022/12/15 07:40:48;;;;;;;;;;;;;;;-2.17;100.00;95402.78;5095019;28;19954;-73
2022/12/15 07:43:14;;;;;;;;;;;;;;;-2.14;100.00;95412.72;5094934;28;19954;-73
2022/12/15 07:45:40;;;;;;;;;;;;;;;-2.10;100.00;95413.19;5094958;28;19952;-73
2022/12/15 07:48:06;;;;;;;;;;;;;;;-2.06;100.00;95417.03;5094919;28;20021;-73
2022/12/15 07:50:32;;;;;;;;;;;;;;;-2.04;100.00;95415.09;5094745;28;19954;-73
2022/12/15 07:52:58;;;;;;;;;;;;;;;-2.00;100.00;95424.06;5094754;28;19969;-73
2022/12/15 07:55:24;;;;;;;;;;;;;;;-1.98;100.00;95426.50;5094420;28;19954;-74
2022/12/15 07:57:50;;;;;;;;;;;;;;;-1.94;100.00;95435.47;5094529;28;20413;-74
2022/12/15 08:00:16;;;;;;;;;;;;;;;-1.92;100.00;95436.13;5093426;28;19958;-73
2022/12/15 08:02:42;;;;;;;;;;;;;;;-1.88;100.00;95445.88;5094679;28;19954;-73
2022/12/15 08:05:08;;;;;;;;;;;;;;;-1.87;100.00;95447.50;5094544;28;20359;-73
2022/12/15 08:07:34;;;;;;;;;;;;;;;-1.88;100.00;95445.09;5094483;28;19948;-73
2022/12/15 08:10:00;;;;;;;;;;;;;;;-1.87;100.00;95460.34;5094794;28;20304;-73
2022/12/15 08:12:26;;;;;;;;;;;;;;;-1.92;100.00;95451.53;5094540;28;19971;-73
2022/12/15 08:14:52;;;;;;;;;;;;;;;-1.93;100.00;95449.91;5094310;28;19954;-73
2022/12/15 08:17:18;;;;;;;;;;;;;;;-1.90;100.00;95454.72;5094387;28;19977;-73
2022/12/15 08:19:44;;;;;;;;;;;;;;;-1.86;100.00;95443.94;5093053;28;19955;-73
2022/12/15 08:22:14;;;;;;;;;;;;;;;-1.81;100.00;95434.94;5094522;28;19954;-74
2022/12/15 08:24:40;;;;;;;;;;;;;;;-1.79;100.00;95445.88;5094490;28;19952;-73
2022/12/15 08:27:07;;;;;;;;;;;;;;;-1.75;100.00;95449.72;5092872;28;19962;-73
2022/12/15 08:29:33;;;;;;;;;;;;;;;-1.70;100.00;95437.97;5093953;28;19959;-73
2022/12/15 08:31:59;;;;;;;;;;;;;;;-1.64;100.00;95434.75;5094311;28;20407;-73
2022/12/15 08:34:24;;;;;;;;;;;;;;;-1.60;100.00;95437.75;5093968;28;20427;-73
2022/12/15 08:36:51;;;;;;;;;;;;;;;-1.56;100.00;95433.88;5093786;28;19982;-73
2022/12/15 08:39:17;;;;;;;;;;;;;;;-1.52;100.00;95445.44;5093836;28;20397;-74
2022/12/15 08:41:43;;;;;;;;;;;;;;;-1.49;100.00;95447.69;5094132;28;20046;-73
2022/12/15 08:44:08;;;;;;;;;;;;;;;-1.47;100.00;95450.06;5093723;28;19991;-73
2022/12/15 08:46:34;;;;;;;;;;;;;;;-1.45;100.00;95454.09;5094196;28;20045;-73
2022/12/15 08:49:01;;;;;;;;;;;;;;;-1.39;100.00;95454.38;5093735;28;20041;-73
2022/12/15 08:51:28;;;;;;;;;;;;;;;-1.35;100.00;95459.03;5092799;28;20352;-73
2022/12/15 08:53:54;;;;;;;;;;;;;;;-1.31;100.00;95455.16;5093953;28;19959;-73
2022/12/15 08:56:21;;;;;;;;;;;;;;;-1.28;100.00;95449.69;5094219;28;19963;-73
2022/12/15 08:58:47;;;;;;;;;;;;;;;-1.25;100.00;95449.34;5093810;28;19947;-73
2022/12/15 09:01:18;;;;;;;;;;;;;;;-1.23;100.00;95439.69;5093999;28;19957;-73
2022/12/15 09:03:44;;;;;;;;;;;;;;;-1.23;100.00;95438.88;5094284;28;19951;-73
2022/12/15 09:06:14;;;;;;;;;;;;;;;-1.22;100.00;95448.19;5093746;28;20336;-73
2022/12/15 09:08:40;;;;;;;;;;;;;;;-1.18;100.00;95451.22;5093857;28;19952;-73
2022/12/15 09:11:07;;;;;;;;;;;;;;;-1.12;100.00;95453.13;5093513;28;19962;-73
2022/12/15 09:13:33;;;;;;;;;;;;;;;-1.06;100.00;95448.09;5093602;28;19991;-73
2022/12/15 09:16:04;;;;;;;;;;;;;;;-0.98;100.00;95456.75;5093641;28;19967;-73
2022/12/15 09:18:30;;;;;;;;;;;;;;;-0.95;100.00;95441.75;5092211;28;19958;-73
2022/12/15 09:21:00;;;;;;;;;;;;;;;-0.95;100.00;95433.25;5093351;28;19956;-73
2022/12/15 09:23:26;;;;;;;;;;;;;;;-0.96;100.00;95429.09;5093620;28;19957;-73
2022/12/15 09:25:58;;;;;;;;;;;;;;;-0.96;100.00;95431.66;5093421;28;20319;-73
2022/12/15 09:28:23;;;;;;;;;;;;;;;-0.89;100.00;95442.88;5092226;28;19972;-73
2022/12/15 09:30:49;;;;;;;;;;;;;;;-0.81;100.00;95445.38;5093398;28;20050;-74
2022/12/15 09:33:15;;;;;;;;;;;;;;;-0.71;100.00;95453.69;5093496;28;20006;-73
2022/12/15 09:35:48;;;;;;;;;;;;;;;-0.65;100.00;95462.47;5093345;28;20005;-73
2022/12/15 09:38:14;;;;;;;;;;;;;;;-0.66;100.00;95471.97;5093080;28;19965;-73
2022/12/15 09:40:40;;;;;;;;;;;;;;;-0.69;99.93;95467.19;5093901;28;19991;-73
2022/12/15 09:43:10;;;;;;;;;;;;;;;-0.70;100.00;95469.94;5092068;28;19961;-73
2022/12/15 09:45:40;;;;;;;;;;;;;;;-0.73;100.00;95460.78;5093476;28;20388;-73
2022/12/15 09:48:11;;;;;;;;;;;;;;;-0.73;100.00;95447.91;5094108;28;19976;-73
2022/12/15 09:50:38;;;;;;;;;;;;;;;-0.71;100.00;95440.81;5096993;28;19949;-73
2022/12/15 09:53:08;;;;;;;;;;;;;;;-0.74;100.00;95438.56;5097084;28;19962;-73
2022/12/15 09:55:34;;;;;;;;;;;;;;;-0.76;100.00;95440.50;5096999;28;19956;-74
2022/12/15 09:58:06;;;;;;;;;;;;;;;-0.77;100.00;95449.22;5097448;28;19956;-73
2022/12/15 10:00:54;;;;;;;;;;;;;;;-0.78;100.00;95452.75;5097041;28;19949;-73
2022/12/15 10:03:22;;;;;;;;;;;;;;;-0.76;100.00;95450.81;5097251;28;19947;-73
2022/12/15 10:05:51;;;;;;;;;;;;;;;-0.71;100.00;95447.75;5097665;28;19955;-73
2022/12/15 10:08:18;;;;;;;;;;;;;;;-0.68;100.00;95439.66;5097012;28;19949;-74
2022/12/15 10:10:46;;;;;;;;;;;;;;;-0.67;100.00;95442.06;5097179;28;19945;-73
2022/12/15 10:13:31;;;;;;;;;;;;;;;-0.64;100.00;95436.56;5096670;28;19971;-73
2022/12/15 10:16:03;;;;;;;;;;;;;;;-0.64;100.00;95422.91;5096986;28;20332;-74
2022/12/15 10:18:34;;;;;;;;;;;;;;;-0.64;100.00;95422.91;5096515;28;19943;-73
2022/12/15 10:21:00;;;;;;;;;;;;;;;-0.68;100.00;95427.59;5097290;28;19953;-73
2022/12/15 10:23:26;;;;;;;;;;;;;;;-0.75;100.00;95423.31;5096692;28;19961;-73
2022/12/15 10:25:58;;;;;;;;;;;;;;;-0.83;100.00;95417.22;5096665;28;20404;-72
2022/12/15 10:28:33;;;;;;;;;;;;;;;-0.90;100.00;95423.25;5096528;28;19961;-73
2022/12/15 10:31:01;;;;;;;;;;;;;;;-1.02;100.00;95417.69;5096495;28;19948;-73
2022/12/15 10:33:33;;;;;;;;;;;;;;;-1.07;100.00;95422.53;5096291;28;19961;-73
2022/12/15 10:35:59;;;;;;;;;;;;;;;-1.11;100.00;95427.25;5095352;28;19955;-73
2022/12/15 10:38:32;;;;;;;;;;;;;;;-1.11;100.00;95419.53;5096295;28;19983;-74
2022/12/15 10:41:01;;;;;;;;;;;;;;;-1.13;100.00;95424.03;5096963;28;19946;-73
2022/12/15 10:43:27;;;;;;;;;;;;;;;-1.17;100.00;95427.91;5095462;28;20016;-73
2022/12/15 10:46:08;;;;;;;;;;;;;;;-1.16;100.00;95428.72;5095150;28;19952;-73
2022/12/15 10:48:34;;;;;;;;;;;;;;;-1.14;100.00;95430.13;5096069;28;19950;-73
2022/12/15 10:51:12;;;;;;;;;;;;;;;-1.10;100.00;95423.69;5095958;28;19947;-73
2022/12/15 10:53:38;;;;;;;;;;;;;;;-1.06;100.00;95419.81;5096751;28;19964;-74
2022/12/15 10:56:08;;;;;;;;;;;;;;;-1.01;100.00;95419.28;5099664;28;20341;-73
2022/12/15 10:58:47;;;;;;;;;;;;;;;-0.99;100.00;95413.97;5078878;28;20405;-73
2022/12/15 11:01:15;;;;;;;;;;;;;;;-0.96;100.00;95408.50;5096033;28;19946;-73
2022/12/15 11:03:41;;;;;;;;;;;;;;;-0.90;100.00;95405.25;5095856;28;19952;-74
2022/12/15 11:06:16;;;;;;;;;;;;;;;-0.86;100.00;95398.75;5095886;28;19958;-74
2022/12/15 11:08:43;;;;;;;;;;;;;;;-0.87;100.00;95399.75;5095381;28;19945;-74
2022/12/15 11:14:14;;;;;;;;;;;;;;;-0.75;100.00;95406.09;5095364;28;19972;-73
2022/12/15 11:16:48;;;;;;;;;;;;;;;-0.68;100.00;95401.84;5095901;28;20073;-73
2022/12/15 11:19:19;;;;;;;;;;;;;;;-0.58;100.00;95395.66;5095395;28;19946;-73
2022/12/15 11:21:47;;;;;;;;;;;;;;;-0.55;100.00;95385.78;5095540;28;19959;-74
2022/12/15 11:24:17;;;;;;;;;;;;;;;-0.56;100.00;95386.00;5095565;28;19945;-73
2022/12/15 11:26:57;;;;;;;;;;;;;;;-0.48;100.00;95376.41;5095223;28;20308;-73
2022/12/15 11:29:35;;;;;;;;;;;;;;;-0.39;100.00;95379.72;5094292;28;19950;-74
2022/12/15 11:32:01;;;;;;;;;;;;;;;-0.28;100.00;95375.91;5095507;28;19956;-74
2022/12/15 11:34:30;;;;;;;;;;;;;;;-0.19;100.00;95379.19;5095407;28;20309;-73
2022/12/15 11:37:02;;;;;;;;;;;;;;;-0.12;100.00;95377.53;5093531;28;19974;-74
2022/12/15 11:39:48;;;;;;;;;;;;;;;-0.09;100.00;95366.84;5095287;28;20397;-74
2022/12/15 11:42:20;;;;;;;;;;;;;;;-0.06;100.00;95354.41;5095443;28;19957;-74
2022/12/15 11:44:49;;;;;;;;;;;;;;;0.01;100.00;95339.03;5094980;28;19956;-74
2022/12/15 11:47:22;;;;;;;;;;;;;;;0.09;100.00;95327.84;5093426;28;19952;-74
2022/12/15 11:49:59;;;;;;;;;;;;;;;0.13;100.00;95311.81;5095001;28;19949;-74
2022/12/15 11:52:28;;;;;;;;;;;;;;;0.13;100.00;95316.97;5094715;28;19964;-74
2022/12/15 11:55:02;;;;;;;;;;;;;;;0.12;100.00;95310.19;5094859;28;19978;-74
2022/12/15 11:57:28;;;;;;;;;;;;;;;0.11;100.00;95318.94;5093508;28;19962;-74
2022/12/15 11:59:54;;;;;;;;;;;;;;;0.06;100.00;95321.22;5094738;28;19946;-74
2022/12/15 12:02:26;;;;;;;;;;;;;;;0.03;100.00;95318.25;5093874;28;19955;-74
2022/12/15 12:05:10;;;;;;;;;;;;;;;-0.01;100.00;95315.22;5094532;28;19943;-74
2022/12/15 12:07:47;;;;;;;;;;;;;;;0.06;100.00;95310.94;5095949;28;19946;-74
2022/12/15 12:10:19;;;;;;;;;;;;;;;0.08;100.00;95297.88;5095236;28;19943;-74
2022/12/15 12:12:59;;;;;;;;;;;;;;;0.16;100.00;95292.59;5094965;28;19951;-76
2022/12/15 12:15:29;;;;;;;;;;;;;;;0.25;100.00;95288.94;5081356;28;19947;-73
2022/12/15 12:18:15;;;;;;;;;;;;;;;0.28;100.00;95303.25;5095509;28;20332;-74
2022/12/15 12:20:51;;;;;;;;;;;;;;;0.24;100.00;95291.72;5095580;28;20437;-74
2022/12/15 12:23:35;;;;;;;;;;;;;;;0.19;99.39;95282.75;5094526;28;19940;-74
2022/12/15 12:26:05;;;;;;;;;;;;;;;0.13;100.00;95298.94;5094638;28;19961;-73
2022/12/15 12:28:43;;;;;;;;;;;;;;;0.18;100.00;95295.81;5093035;28;19951;-73
2022/12/15 12:31:18;;;;;;;;;;;;;;;0.33;100.00;95283.66;5092975;28;19997;-73
2022/12/15 12:33:48;;;;;;;;;;;;;;;0.39;100.00;95289.88;5094179;28;19970;-73
2022/12/15 12:36:15;;;;;;;;;;;;;;;0.40;100.00;95288.91;5094948;28;20300;-73
2022/12/15 12:38:45;;;;;;;;;;;;;;;0.41;100.00;95287.91;5093960;28;19953;-73
2022/12/15 12:41:19;;;;;;;;;;;;;;;0.42;100.00;95284.38;5092956;28;20441;-74
2022/12/15 12:43:54;;;;;;;;;;;;;;;0.42;100.00;95284.38;5093770;28;19950;-73
2022/12/15 12:46:20;;;;;;;;;;;;;;;0.39;99.71;95290.69;5076944;28;20413;-73
2022/12/15 12:49:10;;;;;;;;;;;;;;;0.40;99.91;95297.44;5094080;28;19946;-73
2022/12/15 12:51:40;;;;;;;;;;;;;;;0.40;99.06;95294.88;5093877;28;19946;-73
2022/12/15 12:54:28;;;;;;;;;;;;;;;0.41;99.54;95290.50;5094457;28;19974;-74
2022/12/15 12:56:54;;;;;;;;;;;;;;;0.45;99.76;95293.53;5094145;28;19954;-73
2022/12/15 12:59:29;;;;;;;;;;;;;;;0.49;99.76;95276.69;5093792;28;20360;-73
2022/12/15 13:01:55;;;;;;;;;;;;;;;0.52;99.92;95276.31;5094058;28;19954;-73
2022/12/15 13:04:27;;;;;;;;;;;;;;;0.54;99.64;95267.41;5093747;28;19951;-73
2022/12/15 13:06:53;;;;;;;;;;;;;;;0.51;99.58;95262.63;5093953;28;20323;-74
2022/12/15 13:09:21;;;;;;;;;;;;;;;0.50;99.77;95255.84;5094218;28;19959;-73
2022/12/15 13:11:46;;;;;;;;;;;;;;;0.45;99.89;95250.47;5093749;28;19958;-73
2022/12/15 13:14:21;;;;;;;;;;;;;;;0.40;99.59;95240.72;5093759;28;19961;-73
2022/12/15 13:16:50;;;;;;;;;;;;;;;0.38;100.00;95239.31;5092743;28;19957;-70
2022/12/15 13:19:36;;;;;;;;;;;;;;;0.34;99.96;95227.75;5093892;28;19962;-73
2022/12/15 13:22:02;;;;;;;;;;;;;;;0.31;100.00;95221.16;5093789;28;19940;-73
2022/12/15 13:24:33;;;;;;;;;;;;;;;0.26;100.00;95213.19;5079979;28;20400;-73
2022/12/15 13:27:07;;;;;;;;;;;;;;;0.16;100.00;95208.31;5097803;28;19958;-73
2022/12/15 13:29:34;;;;;;;;;;;;;;;0.05;100.00;95193.34;5087438;28;19949;-73
2022/12/15 13:32:00;;;;;;;;;;;;;;;-0.03;100.00;95196.84;5097463;28;20416;-72
2022/12/15 13:34:28;;;;;;;;;;;;;;;-0.13;100.00;95200.69;5097628;28;19966;-73
2022/12/15 13:36:55;;;;;;;;;;;;;;;-0.22;100.00;95203.38;5097777;28;19970;-73
2022/12/15 13:39:21;;;;;;;;;;;;;;;-0.25;100.00;95210.69;5097795;28;19959;-73
2022/12/15 13:41:47;;;;;;;;;;;;;;;-0.26;100.00;95206.50;5096666;28;20004;-74
2022/12/15 13:44:25;;;;;;;;;;;;;;;-0.26;100.00;95217.59;5097629;28;20003;-74
2022/12/15 13:46:52;;;;;;;;;;;;;;;-0.37;100.00;95218.06;5096642;28;19946;-73
2022/12/15 13:49:24;;;;;;;;;;;;;;;-0.48;100.00;95227.06;5097589;28;19953;-73
2022/12/15 13:51:57;;;;;;;;;;;;;;;-0.56;100.00;95226.34;5097836;28;19953;-74
2022/12/15 13:54:30;;;;;;;;;;;;;;;-0.64;100.00;95222.88;5097229;28;19964;-73
2022/12/15 13:56:58;;;;;;;;;;;;;;;-0.68;100.00;95211.34;5097574;28;19973;-73
2022/12/15 13:59:28;;;;;;;;;;;;;;;-0.70;100.00;95213.28;5097425;28;19949;-73
2022/12/15 14:01:54;;;;;;;;;;;;;;;-0.68;100.00;95216.47;5096085;28;19958;-74
2022/12/15 14:04:20;;;;;;;;;;;;;;;-0.66;100.00;95211.16;5097047;28;19955;-73
2022/12/15 14:07:00;;;;;;;;;;;;;;;-0.66;100.00;95217.09;5096881;28;20431;-74
2022/12/15 14:09:29;;;;;;;;;;;;;;;-0.65;100.00;95212.75;5087527;28;20346;-73
2022/12/15 14:11:56;;;;;;;;;;;;;;;-0.66;100.00;95214.53;5097028;28;20018;-73
2022/12/15 14:14:24;;;;;;;;;;;;;;;-0.64;100.00;95204.84;5096944;28;19959;-74
2022/12/15 14:16:51;;;;;;;;;;;;;;;-0.64;100.00;95210.00;5096758;28;19964;-73
2022/12/15 14:19:18;;;;;;;;;;;;;;;-0.64;100.00;95214.34;5096092;28;19956;-74
2022/12/15 14:21:51;;;;;;;;;;;;;;;-0.66;100.00;95211.94;5096950;28;19959;-74
2022/12/15 14:24:23;;;;;;;;;;;;;;;-0.72;100.00;95211.88;5095266;28;19944;-73
2022/12/15 14:26:49;;;;;;;;;;;;;;;-0.73;100.00;95223.16;5096653;28;19955;-74
2022/12/15 14:29:15;;;;;;;;;;;;;;;-0.76;100.00;95219.13;5096430;28;19957;-73
2022/12/15 14:31:43;;;;;;;;;;;;;;;-0.77;100.00;95216.75;5095149;28;19953;-74
2022/12/15 14:34:22;;;;;;;;;;;;;;;-0.78;100.00;95221.09;5079983;28;19972;-74
2022/12/15 14:36:49;;;;;;;;;;;;;;;-0.75;100.00;95218.19;5096202;28;19996;-74
2022/12/15 14:39:27;;;;;;;;;;;;;;;-0.74;100.00;95206.09;5096312;28;19952;-74
2022/12/15 14:41:53;;;;;;;;;;;;;;;-0.76;100.00;95206.28;5094916;28;19951;-74
2022/12/15 14:44:26;;;;;;;;;;;;;;;-0.81;100.00;95193.16;5096300;28;19952;-73
2022/12/15 14:46:52;;;;;;;;;;;;;;;-0.83;100.00;95198.47;5096571;28;19955;-73
2022/12/15 14:49:20;;;;;;;;;;;;;;;-0.81;100.00;95193.16;5096161;28;20292;-74
2022/12/15 14:51:48;;;;;;;;;;;;;;;-0.81;100.00;95190.56;5096104;28;19949;-73
2022/12/15 14:54:34;;;;;;;;;;;;;;;-0.79;100.00;95193.78;5096060;28;19974;-73
2022/12/15 14:57:14;;;;;;;;;;;;;;;-0.85;100.00;95187.56;5095859;28;19954;-73
2022/12/15 14:59:42;;;;;;;;;;;;;;;-0.89;100.00;95194.03;5095679;28;19951;-74
2022/12/15 15:02:23;;;;;;;;;;;;;;;-0.97;100.00;95188.97;5095972;28;19946;-73
2022/12/15 15:04:58;;;;;;;;;;;;;;;-1.04;100.00;95185.50;5095974;28;19951;-73
2022/12/15 15:07:25;;;;;;;;;;;;;;;-1.10;100.00;95184.44;5085431;28;19949;-73
2022/12/15 15:09:51;;;;;;;;;;;;;;;-1.12;100.00;95193.31;5095918;28;19963;-73
2022/12/15 15:12:18;;;;;;;;;;;;;;;-1.15;100.00;95199.59;5095749;28;19953;-74
2022/12/15 15:14:46;;;;;;;;;;;;;;;-1.20;100.00;95201.09;5095727;28;19969;-73